sensor_id;sensor_type;location;lat;lon;timestamp;P1;durP1;ratioP1;P2;durP2;ratioP2
58950;SDS011;44730;53.158;6.398;2023-05-24T00:01:18;10.98;;;4.30;;
58950;SDS011;44730;53.158;6.398;2023-05-24T00:03:52;18.25;;;4.65;;
58950;SDS011;44730;53.158;6.398;2023-05-24T00:06:18;18.30;;;4.93;;
58950;SDS011;44730;53.158;6.398;2023-05-24T00:08:45;13.70;;;4.22;;
58950;SDS011;44730;53.158;6.398;2023-05-24T00:11:11;15.27;;;4.68;;
58950;SDS011;44730;53.158;6.398;2023-05-24T00:13:37;10.23;;;5.00;;
58950;SDS011;44730;53.158;6.398;2023-05-24T00:16:04;9.48;;;4.40;;
58950;SDS011;44730;53.158;6.398;2023-05-24T00:18:30;13.80;;;4.22;;
58950;SDS011;44730;53.158;6.398;2023-05-24T00:20:58;11.30;;;4.47;;
58950;SDS011;44730;53.158;6.398;2023-05-24T00:23:24;12.35;;;4.53;;
58950;SDS011;44730;53.158;6.398;2023-05-24T00:25:51;9.23;;;4.43;;
58950;SDS011;44730;53.158;6.398;2023-05-24T00:28:17;17.38;;;4.97;;
58950;SDS011;44730;53.158;6.398;2023-05-24T00:30:43;20.52;;;5.60;;
58950;SDS011;44730;53.158;6.398;2023-05-24T00:33:09;13.38;;;4.43;;
58950;SDS011;44730;53.158;6.398;2023-05-24T00:35:35;12.95;;;4.75;;
58950;SDS011;44730;53.158;6.398;2023-05-24T00:38:01;16.80;;;4.75;;
58950;SDS011;44730;53.158;6.398;2023-05-24T00:40:27;12.70;;;5.57;;
58950;SDS011;44730;53.158;6.398;2023-05-24T00:42:54;11.68;;;4.55;;
58950;SDS011;44730;53.158;6.398;2023-05-24T00:45:20;9.38;;;4.20;;
58950;SDS011;44730;53.158;6.398;2023-05-24T00:47:46;9.98;;;4.82;;
58950;SDS011;44730;53.158;6.398;2023-05-24T00:50:12;11.20;;;4.75;;
58950;SDS011;44730;53.158;6.398;2023-05-24T00:52:41;11.82;;;4.47;;
58950;SDS011;44730;53.158;6.398;2023-05-24T00:55:07;15.48;;;4.90;;
58950;SDS011;44730;53.158;6.398;2023-05-24T00:57:35;14.63;;;4.80;;
58950;SDS011;44730;53.158;6.398;2023-05-24T01:00:02;12.07;;;4.40;;
58950;SDS011;44730;53.158;6.398;2023-05-24T01:02:29;11.80;;;4.88;;
58950;SDS011;44730;53.158;6.398;2023-05-24T01:04:56;10.15;;;4.53;;
58950;SDS011;44730;53.158;6.398;2023-05-24T01:07:26;11.43;;;5.70;;
58950;SDS011;44730;53.158;6.398;2023-05-24T01:10:02;12.27;;;3.78;;
58950;SDS011;44730;53.158;6.398;2023-05-24T01:12:40;12.05;;;5.30;;
58950;SDS011;44730;53.158;6.398;2023-05-24T01:15:32;15.95;;;4.65;;
58950;SDS011;44730;53.158;6.398;2023-05-24T01:18:04;9.88;;;4.15;;
58950;SDS011;44730;53.158;6.398;2023-05-24T01:20:32;12.60;;;5.22;;
58950;SDS011;44730;53.158;6.398;2023-05-24T01:23:13;14.90;;;4.53;;
58950;SDS011;44730;53.158;6.398;2023-05-24T01:28:18;12.15;;;4.20;;
58950;SDS011;44730;53.158;6.398;2023-05-24T01:30:45;14.05;;;5.10;;
58950;SDS011;44730;53.158;6.398;2023-05-24T01:33:14;15.35;;;6.10;;
58950;SDS011;44730;53.158;6.398;2023-05-24T01:35:40;11.93;;;4.10;;
58950;SDS011;44730;53.158;6.398;2023-05-24T01:38:06;13.82;;;4.78;;
58950;SDS011;44730;53.158;6.398;2023-05-24T01:40:32;14.07;;;5.22;;
58950;SDS011;44730;53.158;6.398;2023-05-24T01:43:13;13.32;;;5.13;;
58950;SDS011;44730;53.158;6.398;2023-05-24T01:45:54;10.40;;;3.97;;
58950;SDS011;44730;53.158;6.398;2023-05-24T01:48:27;10.52;;;4.18;;
58950;SDS011;44730;53.158;6.398;2023-05-24T01:50:56;13.05;;;4.32;;
58950;SDS011;44730;53.158;6.398;2023-05-24T01:53:24;10.90;;;4.25;;
58950;SDS011;44730;53.158;6.398;2023-05-24T01:55:52;10.68;;;4.57;;
58950;SDS011;44730;53.158;6.398;2023-05-24T01:58:18;11.65;;;4.15;;
58950;SDS011;44730;53.158;6.398;2023-05-24T02:00:45;10.80;;;3.83;;
58950;SDS011;44730;53.158;6.398;2023-05-24T02:03:13;8.88;;;4.20;;
58950;SDS011;44730;53.158;6.398;2023-05-24T02:05:40;9.63;;;4.30;;
58950;SDS011;44730;53.158;6.398;2023-05-24T02:08:06;11.45;;;4.10;;
58950;SDS011;44730;53.158;6.398;2023-05-24T02:10:33;13.68;;;4.82;;
58950;SDS011;44730;53.158;6.398;2023-05-24T02:12:59;10.85;;;4.40;;
58950;SDS011;44730;53.158;6.398;2023-05-24T02:15:25;14.15;;;4.07;;
58950;SDS011;44730;53.158;6.398;2023-05-24T02:17:54;9.98;;;4.32;;
58950;SDS011;44730;53.158;6.398;2023-05-24T02:20:20;19.85;;;5.22;;
58950;SDS011;44730;53.158;6.398;2023-05-24T02:22:49;11.82;;;5.15;;
58950;SDS011;44730;53.158;6.398;2023-05-24T02:25:15;14.50;;;4.85;;
58950;SDS011;44730;53.158;6.398;2023-05-24T02:27:41;10.13;;;4.18;;
58950;SDS011;44730;53.158;6.398;2023-05-24T02:30:11;11.10;;;4.35;;
58950;SDS011;44730;53.158;6.398;2023-05-24T02:32:38;10.50;;;4.43;;
58950;SDS011;44730;53.158;6.398;2023-05-24T02:35:04;12.15;;;4.60;;
58950;SDS011;44730;53.158;6.398;2023-05-24T02:37:31;9.18;;;3.80;;
58950;SDS011;44730;53.158;6.398;2023-05-24T02:39:57;14.82;;;4.32;;
58950;SDS011;44730;53.158;6.398;2023-05-24T02:42:23;14.75;;;5.35;;
58950;SDS011;44730;53.158;6.398;2023-05-24T02:44:49;13.35;;;4.53;;
58950;SDS011;44730;53.158;6.398;2023-05-24T02:47:17;12.23;;;4.40;;
58950;SDS011;44730;53.158;6.398;2023-05-24T02:49:43;12.18;;;3.75;;
58950;SDS011;44730;53.158;6.398;2023-05-24T02:52:09;11.85;;;5.40;;
58950;SDS011;44730;53.158;6.398;2023-05-24T02:54:35;9.27;;;4.25;;
58950;SDS011;44730;53.158;6.398;2023-05-24T02:57:02;12.30;;;4.65;;
58950;SDS011;44730;53.158;6.398;2023-05-24T02:59:30;9.40;;;4.47;;
58950;SDS011;44730;53.158;6.398;2023-05-24T03:01:57;8.68;;;3.90;;
58950;SDS011;44730;53.158;6.398;2023-05-24T03:04:23;13.57;;;4.50;;
58950;SDS011;44730;53.158;6.398;2023-05-24T03:06:49;14.13;;;4.90;;
58950;SDS011;44730;53.158;6.398;2023-05-24T03:09:17;12.10;;;3.78;;
58950;SDS011;44730;53.158;6.398;2023-05-24T03:11:43;13.07;;;4.63;;
58950;SDS011;44730;53.158;6.398;2023-05-24T03:14:09;13.77;;;3.85;;
58950;SDS011;44730;53.158;6.398;2023-05-24T03:16:36;13.13;;;4.45;;
58950;SDS011;44730;53.158;6.398;2023-05-24T03:19:02;11.38;;;4.05;;
58950;SDS011;44730;53.158;6.398;2023-05-24T03:21:30;15.10;;;4.53;;
58950;SDS011;44730;53.158;6.398;2023-05-24T03:23:56;10.32;;;3.97;;
58950;SDS011;44730;53.158;6.398;2023-05-24T03:26:22;9.85;;;4.10;;
58950;SDS011;44730;53.158;6.398;2023-05-24T03:28:53;10.13;;;3.75;;
58950;SDS011;44730;53.158;6.398;2023-05-24T03:31:20;9.82;;;4.60;;
58950;SDS011;44730;53.158;6.398;2023-05-24T03:33:48;10.65;;;3.97;;
58950;SDS011;44730;53.158;6.398;2023-05-24T03:36:14;14.07;;;4.05;;
58950;SDS011;44730;53.158;6.398;2023-05-24T03:38:40;11.40;;;4.60;;
58950;SDS011;44730;53.158;6.398;2023-05-24T03:41:06;9.40;;;3.83;;
58950;SDS011;44730;53.158;6.398;2023-05-24T03:43:33;11.23;;;4.22;;
58950;SDS011;44730;53.158;6.398;2023-05-24T03:45:59;15.70;;;4.60;;
58950;SDS011;44730;53.158;6.398;2023-05-24T03:48:25;10.35;;;3.58;;
58950;SDS011;44730;53.158;6.398;2023-05-24T03:50:51;11.93;;;3.70;;
58950;SDS011;44730;53.158;6.398;2023-05-24T03:53:17;12.65;;;4.25;;
58950;SDS011;44730;53.158;6.398;2023-05-24T03:55:43;7.80;;;3.25;;
58950;SDS011;44730;53.158;6.398;2023-05-24T03:58:10;13.50;;;4.32;;
58950;SDS011;44730;53.158;6.398;2023-05-24T04:00:36;10.65;;;3.67;;
58950;SDS011;44730;53.158;6.398;2023-05-24T04:03:02;15.00;;;3.88;;
58950;SDS011;44730;53.158;6.398;2023-05-24T04:05:31;8.38;;;3.97;;
58950;SDS011;44730;53.158;6.398;2023-05-24T04:07:57;13.77;;;4.78;;
58950;SDS011;44730;53.158;6.398;2023-05-24T04:10:23;9.93;;;3.80;;
58950;SDS011;44730;53.158;6.398;2023-05-24T04:12:49;13.75;;;4.10;;
58950;SDS011;44730;53.158;6.398;2023-05-24T04:15:15;10.90;;;3.72;;
58950;SDS011;44730;53.158;6.398;2023-05-24T04:17:42;12.73;;;4.00;;
58950;SDS011;44730;53.158;6.398;2023-05-24T04:20:11;10.60;;;4.10;;
58950;SDS011;44730;53.158;6.398;2023-05-24T04:22:38;11.95;;;3.97;;
58950;SDS011;44730;53.158;6.398;2023-05-24T04:25:04;8.60;;;3.70;;
58950;SDS011;44730;53.158;6.398;2023-05-24T04:27:31;8.75;;;3.75;;
58950;SDS011;44730;53.158;6.398;2023-05-24T04:29:57;6.65;;;3.38;;
58950;SDS011;44730;53.158;6.398;2023-05-24T04:32:23;11.57;;;3.70;;
58950;SDS011;44730;53.158;6.398;2023-05-24T04:34:50;14.32;;;3.70;;
58950;SDS011;44730;53.158;6.398;2023-05-24T04:37:16;10.40;;;3.72;;
58950;SDS011;44730;53.158;6.398;2023-05-24T04:39:43;13.65;;;4.65;;
58950;SDS011;44730;53.158;6.398;2023-05-24T04:42:10;8.95;;;3.95;;
58950;SDS011;44730;53.158;6.398;2023-05-24T04:44:36;12.60;;;3.75;;
58950;SDS011;44730;53.158;6.398;2023-05-24T04:47:05;9.85;;;3.85;;
58950;SDS011;44730;53.158;6.398;2023-05-24T04:49:31;8.45;;;3.90;;
58950;SDS011;44730;53.158;6.398;2023-05-24T04:51:57;11.27;;;4.13;;
58950;SDS011;44730;53.158;6.398;2023-05-24T04:54:23;9.70;;;3.65;;
58950;SDS011;44730;53.158;6.398;2023-05-24T04:56:49;9.32;;;4.10;;
58950;SDS011;44730;53.158;6.398;2023-05-24T04:59:16;11.57;;;3.85;;
58950;SDS011;44730;53.158;6.398;2023-05-24T05:01:42;11.38;;;3.75;;
58950;SDS011;44730;53.158;6.398;2023-05-24T05:04:08;9.57;;;4.18;;
58950;SDS011;44730;53.158;6.398;2023-05-24T05:06:34;10.75;;;3.75;;
58950;SDS011;44730;53.158;6.398;2023-05-24T05:09:06;10.48;;;3.70;;
58950;SDS011;44730;53.158;6.398;2023-05-24T05:11:38;11.25;;;3.55;;
58950;SDS011;44730;53.158;6.398;2023-05-24T05:14:04;9.20;;;3.78;;
58950;SDS011;44730;53.158;6.398;2023-05-24T05:16:33;9.88;;;4.00;;
58950;SDS011;44730;53.158;6.398;2023-05-24T05:19:00;12.15;;;3.72;;
58950;SDS011;44730;53.158;6.398;2023-05-24T05:21:29;12.27;;;4.10;;
58950;SDS011;44730;53.158;6.398;2023-05-24T05:23:58;11.70;;;4.28;;
58950;SDS011;44730;53.158;6.398;2023-05-24T05:26:25;9.85;;;3.85;;
58950;SDS011;44730;53.158;6.398;2023-05-24T05:28:51;12.57;;;4.18;;
58950;SDS011;44730;53.158;6.398;2023-05-24T05:31:18;7.28;;;3.55;;
58950;SDS011;44730;53.158;6.398;2023-05-24T05:33:45;13.30;;;4.40;;
58950;SDS011;44730;53.158;6.398;2023-05-24T05:36:11;10.30;;;4.20;;
58950;SDS011;44730;53.158;6.398;2023-05-24T05:38:37;11.18;;;3.90;;
58950;SDS011;44730;53.158;6.398;2023-05-24T05:41:03;9.48;;;3.63;;
58950;SDS011;44730;53.158;6.398;2023-05-24T05:43:30;11.35;;;3.30;;
58950;SDS011;44730;53.158;6.398;2023-05-24T05:45:56;8.43;;;3.65;;
58950;SDS011;44730;53.158;6.398;2023-05-24T05:48:22;8.45;;;3.85;;
58950;SDS011;44730;53.158;6.398;2023-05-24T05:50:49;11.25;;;3.95;;
58950;SDS011;44730;53.158;6.398;2023-05-24T05:53:15;11.13;;;3.92;;
58950;SDS011;44730;53.158;6.398;2023-05-24T05:55:41;9.70;;;4.25;;
58950;SDS011;44730;53.158;6.398;2023-05-24T05:58:07;13.55;;;4.95;;
58950;SDS011;44730;53.158;6.398;2023-05-24T06:00:33;15.25;;;4.25;;
58950;SDS011;44730;53.158;6.398;2023-05-24T06:02:59;11.15;;;4.68;;
58950;SDS011;44730;53.158;6.398;2023-05-24T06:05:25;12.80;;;3.70;;
58950;SDS011;44730;53.158;6.398;2023-05-24T06:07:51;8.68;;;3.20;;
58950;SDS011;44730;53.158;6.398;2023-05-24T06:10:18;8.93;;;3.97;;
58950;SDS011;44730;53.158;6.398;2023-05-24T06:12:44;11.30;;;4.00;;
58950;SDS011;44730;53.158;6.398;2023-05-24T06:15:10;9.38;;;3.97;;
58950;SDS011;44730;53.158;6.398;2023-05-24T06:17:36;11.35;;;3.88;;
58950;SDS011;44730;53.158;6.398;2023-05-24T06:20:03;10.43;;;3.67;;
58950;SDS011;44730;53.158;6.398;2023-05-24T06:22:35;9.32;;;4.05;;
58950;SDS011;44730;53.158;6.398;2023-05-24T06:25:02;13.82;;;4.25;;
58950;SDS011;44730;53.158;6.398;2023-05-24T06:27:29;7.85;;;3.35;;
58950;SDS011;44730;53.158;6.398;2023-05-24T06:29:55;11.32;;;4.13;;
58950;SDS011;44730;53.158;6.398;2023-05-24T06:32:21;9.85;;;3.72;;
58950;SDS011;44730;53.158;6.398;2023-05-24T06:34:47;8.98;;;3.17;;
58950;SDS011;44730;53.158;6.398;2023-05-24T06:37:13;7.10;;;3.47;;
58950;SDS011;44730;53.158;6.398;2023-05-24T06:39:40;9.25;;;3.83;;
58950;SDS011;44730;53.158;6.398;2023-05-24T06:42:06;7.32;;;3.67;;
58950;SDS011;44730;53.158;6.398;2023-05-24T06:44:32;6.90;;;3.60;;
58950;SDS011;44730;53.158;6.398;2023-05-24T06:46:59;9.65;;;3.53;;
58950;SDS011;44730;53.158;6.398;2023-05-24T06:49:26;9.70;;;3.45;;
58950;SDS011;44730;53.158;6.398;2023-05-24T06:51:53;8.70;;;3.72;;
58950;SDS011;44730;53.158;6.398;2023-05-24T06:54:19;9.82;;;3.67;;
58950;SDS011;44730;53.158;6.398;2023-05-24T06:56:45;7.05;;;3.08;;
58950;SDS011;44730;53.158;6.398;2023-05-24T06:59:12;8.40;;;3.40;;
58950;SDS011;44730;53.158;6.398;2023-05-24T07:01:38;9.80;;;3.30;;
58950;SDS011;44730;53.158;6.398;2023-05-24T07:04:07;6.65;;;3.30;;
58950;SDS011;44730;53.158;6.398;2023-05-24T07:06:33;7.57;;;3.47;;
58950;SDS011;44730;53.158;6.398;2023-05-24T07:08:59;6.72;;;3.10;;
58950;SDS011;44730;53.158;6.398;2023-05-24T07:11:26;6.85;;;3.85;;
58950;SDS011;44730;53.158;6.398;2023-05-24T07:13:52;6.70;;;3.58;;
58950;SDS011;44730;53.158;6.398;2023-05-24T07:16:19;6.32;;;3.80;;
58950;SDS011;44730;53.158;6.398;2023-05-24T07:18:45;8.73;;;3.45;;
58950;SDS011;44730;53.158;6.398;2023-05-24T07:21:11;8.63;;;3.92;;
58950;SDS011;44730;53.158;6.398;2023-05-24T07:23:37;8.25;;;3.55;;
58950;SDS011;44730;53.158;6.398;2023-05-24T07:26:04;8.57;;;3.92;;
58950;SDS011;44730;53.158;6.398;2023-05-24T07:28:30;10.07;;;4.13;;
58950;SDS011;44730;53.158;6.398;2023-05-24T07:30:56;9.80;;;4.05;;
58950;SDS011;44730;53.158;6.398;2023-05-24T07:33:22;10.18;;;4.10;;
58950;SDS011;44730;53.158;6.398;2023-05-24T07:35:48;10.65;;;4.25;;
58950;SDS011;44730;53.158;6.398;2023-05-24T07:38:17;8.48;;;4.05;;
58950;SDS011;44730;53.158;6.398;2023-05-24T07:40:44;8.75;;;4.05;;
58950;SDS011;44730;53.158;6.398;2023-05-24T07:43:10;6.20;;;3.53;;
58950;SDS011;44730;53.158;6.398;2023-05-24T07:45:36;7.88;;;4.00;;
58950;SDS011;44730;53.158;6.398;2023-05-24T07:48:02;9.05;;;4.18;;
58950;SDS011;44730;53.158;6.398;2023-05-24T07:50:28;7.50;;;4.18;;
58950;SDS011;44730;53.158;6.398;2023-05-24T07:52:57;9.40;;;4.25;;
58950;SDS011;44730;53.158;6.398;2023-05-24T07:55:23;10.57;;;4.43;;
58950;SDS011;44730;53.158;6.398;2023-05-24T07:57:51;9.07;;;4.05;;
58950;SDS011;44730;53.158;6.398;2023-05-24T08:00:17;9.85;;;4.43;;
58950;SDS011;44730;53.158;6.398;2023-05-24T08:02:44;7.63;;;3.97;;
58950;SDS011;44730;53.158;6.398;2023-05-24T08:05:13;7.45;;;3.92;;
58950;SDS011;44730;53.158;6.398;2023-05-24T08:07:40;9.15;;;4.07;;
58950;SDS011;44730;53.158;6.398;2023-05-24T08:10:08;9.60;;;3.50;;
58950;SDS011;44730;53.158;6.398;2023-05-24T08:12:36;10.13;;;3.95;;
58950;SDS011;44730;53.158;6.398;2023-05-24T08:15:03;8.27;;;3.88;;
58950;SDS011;44730;53.158;6.398;2023-05-24T08:17:29;8.50;;;3.10;;
58950;SDS011;44730;53.158;6.398;2023-05-24T08:19:55;6.85;;;3.63;;
58950;SDS011;44730;53.158;6.398;2023-05-24T08:22:22;5.85;;;3.08;;
58950;SDS011;44730;53.158;6.398;2023-05-24T08:24:49;5.22;;;2.53;;
58950;SDS011;44730;53.158;6.398;2023-05-24T08:27:16;9.52;;;3.55;;
58950;SDS011;44730;53.158;6.398;2023-05-24T08:29:42;5.65;;;2.92;;
58950;SDS011;44730;53.158;6.398;2023-05-24T08:32:08;11.00;;;3.40;;
58950;SDS011;44730;53.158;6.398;2023-05-24T08:34:35;4.80;;;2.90;;
58950;SDS011;44730;53.158;6.398;2023-05-24T08:37:02;4.93;;;2.75;;
58950;SDS011;44730;53.158;6.398;2023-05-24T08:39:28;4.63;;;2.88;;
58950;SDS011;44730;53.158;6.398;2023-05-24T08:41:54;7.65;;;2.90;;
58950;SDS011;44730;53.158;6.398;2023-05-24T08:44:21;6.05;;;2.80;;
58950;SDS011;44730;53.158;6.398;2023-05-24T08:46:48;4.65;;;2.70;;
58950;SDS011;44730;53.158;6.398;2023-05-24T08:49:15;7.30;;;3.47;;
58950;SDS011;44730;53.158;6.398;2023-05-24T08:51:42;6.97;;;3.17;;
58950;SDS011;44730;53.158;6.398;2023-05-24T08:54:09;6.65;;;2.92;;
58950;SDS011;44730;53.158;6.398;2023-05-24T08:56:37;6.95;;;3.00;;
58950;SDS011;44730;53.158;6.398;2023-05-24T08:59:05;8.02;;;3.00;;
58950;SDS011;44730;53.158;6.398;2023-05-24T09:01:31;7.32;;;3.40;;
58950;SDS011;44730;53.158;6.398;2023-05-24T09:03:57;5.00;;;3.13;;
58950;SDS011;44730;53.158;6.398;2023-05-24T09:06:24;7.50;;;2.85;;
58950;SDS011;44730;53.158;6.398;2023-05-24T09:08:51;4.57;;;2.78;;
58950;SDS011;44730;53.158;6.398;2023-05-24T09:11:18;5.13;;;2.97;;
58950;SDS011;44730;53.158;6.398;2023-05-24T09:13:45;5.93;;;3.20;;
58950;SDS011;44730;53.158;6.398;2023-05-24T09:16:11;5.15;;;2.90;;
58950;SDS011;44730;53.158;6.398;2023-05-24T09:18:38;4.63;;;3.13;;
58950;SDS011;44730;53.158;6.398;2023-05-24T09:21:05;4.82;;;2.97;;
58950;SDS011;44730;53.158;6.398;2023-05-24T09:23:32;5.55;;;3.13;;
58950;SDS011;44730;53.158;6.398;2023-05-24T09:25:58;5.50;;;2.72;;
58950;SDS011;44730;53.158;6.398;2023-05-24T09:28:31;6.20;;;3.05;;
58950;SDS011;44730;53.158;6.398;2023-05-24T09:30:58;8.20;;;3.25;;
58950;SDS011;44730;53.158;6.398;2023-05-24T09:33:29;8.23;;;3.35;;
58950;SDS011;44730;53.158;6.398;2023-05-24T09:35:59;5.03;;;3.20;;
58950;SDS011;44730;53.158;6.398;2023-05-24T09:38:25;6.15;;;3.33;;
58950;SDS011;44730;53.158;6.398;2023-05-24T09:40:59;5.07;;;2.80;;
58950;SDS011;44730;53.158;6.398;2023-05-24T09:43:25;5.28;;;2.63;;
58950;SDS011;44730;53.158;6.398;2023-05-24T09:45:54;4.30;;;3.13;;
58950;SDS011;44730;53.158;6.398;2023-05-24T09:48:22;5.65;;;3.00;;
58950;SDS011;44730;53.158;6.398;2023-05-24T09:53:25;5.57;;;2.70;;
58950;SDS011;44730;53.158;6.398;2023-05-24T09:55:53;4.93;;;2.63;;
58950;SDS011;44730;53.158;6.398;2023-05-24T09:58:19;5.60;;;2.97;;
58950;SDS011;44730;53.158;6.398;2023-05-24T10:00:45;4.75;;;2.63;;
58950;SDS011;44730;53.158;6.398;2023-05-24T10:03:12;5.90;;;2.67;;
58950;SDS011;44730;53.158;6.398;2023-05-24T10:05:45;4.35;;;2.70;;
58950;SDS011;44730;53.158;6.398;2023-05-24T10:08:12;4.88;;;2.97;;
58950;SDS011;44730;53.158;6.398;2023-05-24T10:10:39;4.25;;;2.65;;
58950;SDS011;44730;53.158;6.398;2023-05-24T10:13:07;6.50;;;2.63;;
58950;SDS011;44730;53.158;6.398;2023-05-24T10:15:33;7.22;;;2.70;;
58950;SDS011;44730;53.158;6.398;2023-05-24T10:18:00;4.72;;;3.10;;
58950;SDS011;44730;53.158;6.398;2023-05-24T10:20:32;6.50;;;3.22;;
58950;SDS011;44730;53.158;6.398;2023-05-24T10:23:00;4.80;;;3.25;;
58950;SDS011;44730;53.158;6.398;2023-05-24T10:25:28;6.68;;;3.17;;
58950;SDS011;44730;53.158;6.398;2023-05-24T10:27:56;4.88;;;2.80;;
58950;SDS011;44730;53.158;6.398;2023-05-24T10:32:52;5.47;;;2.95;;
58950;SDS011;44730;53.158;6.398;2023-05-24T10:35:18;5.95;;;3.60;;
58950;SDS011;44730;53.158;6.398;2023-05-24T10:37:45;7.28;;;3.25;;
58950;SDS011;44730;53.158;6.398;2023-05-24T10:40:15;5.53;;;3.08;;
58950;SDS011;44730;53.158;6.398;2023-05-24T10:42:42;8.20;;;3.45;;
58950;SDS011;44730;53.158;6.398;2023-05-24T10:47:47;4.43;;;2.78;;
58950;SDS011;44730;53.158;6.398;2023-05-24T10:50:17;6.32;;;3.03;;
58950;SDS011;44730;53.158;6.398;2023-05-24T10:52:44;5.63;;;3.25;;
58950;SDS011;44730;53.158;6.398;2023-05-24T10:55:10;7.18;;;3.53;;
58950;SDS011;44730;53.158;6.398;2023-05-24T10:57:37;5.60;;;3.38;;
58950;SDS011;44730;53.158;6.398;2023-05-24T11:00:46;9.95;;;3.03;;
58950;SDS011;44730;53.158;6.398;2023-05-24T11:03:00;6.75;;;2.90;;
58950;SDS011;44730;53.158;6.398;2023-05-24T11:08:13;5.05;;;2.70;;
58950;SDS011;44730;53.158;6.398;2023-05-24T11:10:39;5.13;;;2.58;;
58950;SDS011;44730;53.158;6.398;2023-05-24T11:13:07;6.13;;;3.30;;
58950;SDS011;44730;53.158;6.398;2023-05-24T11:15:34;5.30;;;3.10;;
58950;SDS011;44730;53.158;6.398;2023-05-24T11:20:41;6.32;;;3.13;;
58950;SDS011;44730;53.158;6.398;2023-05-24T11:23:09;5.05;;;3.28;;
58950;SDS011;44730;53.158;6.398;2023-05-24T11:25:39;5.18;;;2.72;;
58950;SDS011;44730;53.158;6.398;2023-05-24T11:28:06;3.53;;;2.45;;
58950;SDS011;44730;53.158;6.398;2023-05-24T11:30:43;4.57;;;2.60;;
58950;SDS011;44730;53.158;6.398;2023-05-24T11:33:16;5.00;;;2.80;;
58950;SDS011;44730;53.158;6.398;2023-05-24T11:35:43;3.67;;;2.50;;
58950;SDS011;44730;53.158;6.398;2023-05-24T11:38:10;5.30;;;3.00;;
58950;SDS011;44730;53.158;6.398;2023-05-24T11:40:42;5.93;;;3.30;;
58950;SDS011;44730;53.158;6.398;2023-05-24T11:43:10;6.40;;;2.90;;
58950;SDS011;44730;53.158;6.398;2023-05-24T11:45:38;5.95;;;2.75;;
58950;SDS011;44730;53.158;6.398;2023-05-24T11:48:04;7.05;;;2.95;;
58950;SDS011;44730;53.158;6.398;2023-05-24T11:50:31;4.90;;;3.03;;
58950;SDS011;44730;53.158;6.398;2023-05-24T11:53:03;6.10;;;2.97;;
58950;SDS011;44730;53.158;6.398;2023-05-24T11:55:29;4.85;;;2.92;;
58950;SDS011;44730;53.158;6.398;2023-05-24T11:57:57;6.30;;;3.10;;
58950;SDS011;44730;53.158;6.398;2023-05-24T12:00:26;8.55;;;3.20;;
58950;SDS011;44730;53.158;6.398;2023-05-24T12:02:57;4.78;;;2.80;;
58950;SDS011;44730;53.158;6.398;2023-05-24T12:05:26;4.10;;;2.72;;
58950;SDS011;44730;53.158;6.398;2023-05-24T12:08:00;5.68;;;2.97;;
58950;SDS011;44730;53.158;6.398;2023-05-24T12:10:26;5.25;;;2.88;;
58950;SDS011;44730;53.158;6.398;2023-05-24T12:12:52;5.70;;;2.83;;
58950;SDS011;44730;53.158;6.398;2023-05-24T12:15:18;5.55;;;2.88;;
58950;SDS011;44730;53.158;6.398;2023-05-24T12:17:46;5.60;;;2.80;;
58950;SDS011;44730;53.158;6.398;2023-05-24T12:20:16;5.53;;;2.92;;
58950;SDS011;44730;53.158;6.398;2023-05-24T12:22:50;5.32;;;2.38;;
58950;SDS011;44730;53.158;6.398;2023-05-24T12:25:17;4.88;;;2.45;;
58950;SDS011;44730;53.158;6.398;2023-05-24T12:27:56;7.50;;;2.95;;
58950;SDS011;44730;53.158;6.398;2023-05-24T12:30:23;6.15;;;2.80;;
58950;SDS011;44730;53.158;6.398;2023-05-24T12:32:49;6.15;;;3.50;;
58950;SDS011;44730;53.158;6.398;2023-05-24T12:35:17;6.45;;;2.63;;
58950;SDS011;44730;53.158;6.398;2023-05-24T12:37:45;5.32;;;2.58;;
58950;SDS011;44730;53.158;6.398;2023-05-24T12:40:20;6.15;;;2.63;;
58950;SDS011;44730;53.158;6.398;2023-05-24T12:42:53;6.35;;;3.08;;
58950;SDS011;44730;53.158;6.398;2023-05-24T12:45:24;4.47;;;3.00;;
58950;SDS011;44730;53.158;6.398;2023-05-24T12:47:54;4.18;;;2.40;;
58950;SDS011;44730;53.158;6.398;2023-05-24T12:50:22;5.18;;;2.92;;
58950;SDS011;44730;53.158;6.398;2023-05-24T12:52:50;6.18;;;2.83;;
58950;SDS011;44730;53.158;6.398;2023-05-24T12:55:26;6.43;;;2.67;;
58950;SDS011;44730;53.158;6.398;2023-05-24T12:57:52;5.25;;;3.65;;
58950;SDS011;44730;53.158;6.398;2023-05-24T13:00:29;6.82;;;2.80;;
58950;SDS011;44730;53.158;6.398;2023-05-24T13:02:55;3.70;;;2.10;;
58950;SDS011;44730;53.158;6.398;2023-05-24T13:05:23;4.68;;;2.83;;
58950;SDS011;44730;53.158;6.398;2023-05-24T13:07:50;4.93;;;2.70;;
58950;SDS011;44730;53.158;6.398;2023-05-24T13:10:16;4.90;;;2.30;;
58950;SDS011;44730;53.158;6.398;2023-05-24T13:12:43;3.88;;;2.50;;
58950;SDS011;44730;53.158;6.398;2023-05-24T13:15:10;4.38;;;2.70;;
58950;SDS011;44730;53.158;6.398;2023-05-24T13:17:36;5.38;;;3.17;;
58950;SDS011;44730;53.158;6.398;2023-05-24T13:20:03;5.25;;;2.78;;
58950;SDS011;44730;53.158;6.398;2023-05-24T13:22:31;4.00;;;2.58;;
58950;SDS011;44730;53.158;6.398;2023-05-24T13:24:58;6.57;;;3.17;;
58950;SDS011;44730;53.158;6.398;2023-05-24T13:27:24;4.13;;;2.60;;
58950;SDS011;44730;53.158;6.398;2023-05-24T13:29:50;5.68;;;2.80;;
58950;SDS011;44730;53.158;6.398;2023-05-24T13:32:16;6.20;;;3.20;;
58950;SDS011;44730;53.158;6.398;2023-05-24T13:34:43;6.35;;;2.92;;
58950;SDS011;44730;53.158;6.398;2023-05-24T13:37:09;6.47;;;3.15;;
58950;SDS011;44730;53.158;6.398;2023-05-24T13:39:36;5.85;;;2.50;;
58950;SDS011;44730;53.158;6.398;2023-05-24T13:42:02;4.50;;;2.60;;
58950;SDS011;44730;53.158;6.398;2023-05-24T13:44:29;5.10;;;2.60;;
58950;SDS011;44730;53.158;6.398;2023-05-24T13:46:56;5.82;;;2.70;;
58950;SDS011;44730;53.158;6.398;2023-05-24T13:49:22;6.00;;;2.40;;
58950;SDS011;44730;53.158;6.398;2023-05-24T13:51:48;5.43;;;2.90;;
58950;SDS011;44730;53.158;6.398;2023-05-24T13:54:15;2.45;;;2.13;;
58950;SDS011;44730;53.158;6.398;2023-05-24T13:56:41;4.03;;;2.58;;
58950;SDS011;44730;53.158;6.398;2023-05-24T13:59:08;4.30;;;2.15;;
58950;SDS011;44730;53.158;6.398;2023-05-24T14:01:36;4.78;;;2.10;;
58950;SDS011;44730;53.158;6.398;2023-05-24T14:04:03;3.75;;;2.10;;
58950;SDS011;44730;53.158;6.398;2023-05-24T14:06:30;4.05;;;2.30;;
58950;SDS011;44730;53.158;6.398;2023-05-24T14:08:56;3.80;;;2.47;;
58950;SDS011;44730;53.158;6.398;2023-05-24T14:11:22;6.47;;;2.40;;
58950;SDS011;44730;53.158;6.398;2023-05-24T14:13:49;5.00;;;2.45;;
58950;SDS011;44730;53.158;6.398;2023-05-24T14:16:15;4.55;;;2.35;;
58950;SDS011;44730;53.158;6.398;2023-05-24T14:18:41;4.55;;;2.55;;
58950;SDS011;44730;53.158;6.398;2023-05-24T14:21:08;4.97;;;2.30;;
58950;SDS011;44730;53.158;6.398;2023-05-24T14:23:34;4.32;;;2.20;;
58950;SDS011;44730;53.158;6.398;2023-05-24T14:26:00;3.35;;;2.35;;
58950;SDS011;44730;53.158;6.398;2023-05-24T14:28:26;5.32;;;2.67;;
58950;SDS011;44730;53.158;6.398;2023-05-24T14:30:52;7.00;;;2.45;;
58950;SDS011;44730;53.158;6.398;2023-05-24T14:33:18;3.53;;;2.20;;
58950;SDS011;44730;53.158;6.398;2023-05-24T14:35:46;4.63;;;2.67;;
58950;SDS011;44730;53.158;6.398;2023-05-24T14:38:12;3.75;;;2.05;;
58950;SDS011;44730;53.158;6.398;2023-05-24T14:40:38;3.25;;;2.58;;
58950;SDS011;44730;53.158;6.398;2023-05-24T14:43:07;5.32;;;2.58;;
58950;SDS011;44730;53.158;6.398;2023-05-24T14:45:34;3.75;;;2.55;;
58950;SDS011;44730;53.158;6.398;2023-05-24T14:48:02;4.70;;;2.55;;
58950;SDS011;44730;53.158;6.398;2023-05-24T14:50:28;4.50;;;2.50;;
58950;SDS011;44730;53.158;6.398;2023-05-24T14:52:54;4.10;;;2.30;;
58950;SDS011;44730;53.158;6.398;2023-05-24T14:55:21;3.85;;;2.03;;
58950;SDS011;44730;53.158;6.398;2023-05-24T14:57:47;3.42;;;2.10;;
58950;SDS011;44730;53.158;6.398;2023-05-24T15:00:13;5.22;;;2.20;;